createdAt,value
2019-05-05T00:00:55.027Z,62.89
2019-05-05T00:03:24.955Z,62.99
2019-05-05T00:05:51.183Z,63.14
2019-05-05T00:08:15.988Z,63.97
2019-05-05T00:10:45.260Z,62.35
2019-05-05T00:13:26.621Z,62.37
2019-05-05T00:16:08.955Z,63.49
2019-05-05T00:18:34.661Z,63.29
2019-05-05T00:20:59.190Z,62.61
2019-05-05T00:23:25.103Z,61.48
2019-05-05T00:25:49.875Z,60.86
2019-05-05T00:28:14.425Z,59.80
2019-05-05T00:30:38.891Z,59.60
2019-05-05T00:33:05.406Z,59.78
2019-05-05T00:35:29.644Z,59.47
2019-05-05T00:37:54.466Z,59.43
2019-05-05T00:40:19.063Z,59.50
2019-05-05T00:42:45.538Z,59.46
2019-05-05T00:45:10.375Z,59.52
2019-05-05T00:47:54.635Z,59.41
2019-05-05T00:50:20.615Z,60.37
2019-05-05T00:52:45.084Z,59.95
2019-05-05T00:55:10.173Z,59.82
2019-05-05T00:57:34.880Z,59.54
2019-05-05T00:59:59.297Z,59.33
2019-05-05T01:02:34.464Z,59.32
2019-05-05T01:05:04.546Z,59.49
2019-05-05T01:07:29.219Z,59.59
2019-05-05T01:09:54.292Z,59.51
2019-05-05T01:12:19.795Z,59.61
2019-05-05T01:14:44.831Z,59.54
2019-05-05T01:17:09.417Z,59.51
2019-05-05T01:19:34.955Z,59.60
2019-05-05T01:21:59.734Z,59.45
2019-05-05T01:24:24.874Z,60.08
2019-05-05T01:26:49.481Z,60.08
2019-05-05T01:29:14.853Z,60.09
2019-05-05T01:31:39.384Z,59.84
2019-05-05T01:34:05.630Z,60.75
2019-05-05T01:36:30.090Z,60.23
2019-05-05T01:38:59.231Z,60.40
2019-05-05T01:41:31.404Z,59.92
2019-05-05T01:43:55.996Z,60.24
2019-05-05T01:46:20.460Z,60.44
2019-05-05T01:48:44.991Z,60.47
2019-05-05T01:51:09.514Z,60.50
2019-05-05T01:53:35.013Z,60.24
2019-05-05T01:56:00.313Z,60.38
2019-05-05T01:58:25.018Z,60.40
2019-05-05T02:00:49.634Z,60.56
2019-05-05T02:03:14.796Z,60.41
2019-05-05T02:05:39.398Z,60.46
2019-05-05T02:08:04.975Z,60.67
2019-05-05T02:10:29.630Z,60.57
2019-05-05T02:12:55.085Z,60.66
2019-05-05T02:15:19.990Z,60.48
2019-05-05T02:17:44.762Z,60.79
2019-05-05T02:20:11.139Z,61.16
2019-05-05T02:22:35.783Z,61.29
2019-05-05T02:25:00.260Z,61.40
2019-05-05T02:27:25.337Z,61.09
2019-05-05T02:30:06.308Z,61.03
2019-05-05T02:32:50.270Z,60.93
2019-05-05T02:35:16.870Z,61.35
2019-05-05T02:37:41.527Z,61.59
2019-05-05T02:40:08.680Z,61.35
2019-05-05T02:42:35.437Z,61.84
2019-05-05T02:45:05.566Z,61.49
2019-05-05T02:47:55.434Z,61.52
2019-05-05T02:50:20.588Z,61.55
2019-05-05T02:52:47.090Z,61.28
2019-05-05T02:55:14.677Z,61.39
2019-05-05T02:57:39.566Z,61.30
2019-05-05T03:00:15.455Z,61.49
2019-05-05T03:02:40.223Z,61.34
2019-05-05T03:05:07.791Z,61.56
2019-05-05T03:07:37.283Z,62.07
2019-05-05T03:10:03.715Z,61.74
2019-05-05T03:12:34.567Z,61.45
2019-05-05T03:14:58.785Z,61.38
2019-05-05T03:17:23.675Z,61.37
2019-05-05T03:19:49.180Z,61.46
2019-05-05T03:22:14.337Z,61.60
2019-05-05T03:24:39.335Z,61.74
2019-05-05T03:27:04.139Z,61.98
2019-05-05T03:29:29.452Z,61.75
2019-05-05T03:31:56.375Z,61.86
2019-05-05T03:34:23.840Z,62.03
2019-05-05T03:36:48.722Z,61.95
2019-05-05T03:39:15.165Z,62.25
2019-05-05T03:41:44.121Z,62.29
2019-05-05T03:44:10.765Z,62.04
2019-05-05T03:46:36.440Z,62.63
2019-05-05T03:49:01.036Z,62.43
2019-05-05T03:51:26.102Z,62.47
2019-05-05T03:53:50.717Z,62.38
2019-05-05T03:56:15.302Z,62.83
2019-05-05T03:58:39.935Z,63.50
2019-05-05T04:01:19.542Z,62.92
2019-05-05T04:03:44.032Z,62.81
2019-05-05T04:06:14.975Z,63.45
2019-05-05T04:08:39.613Z,64.00
2019-05-05T04:11:04.370Z,63.88
2019-05-05T04:13:29.398Z,63.74
2019-05-05T04:16:13.587Z,63.60
2019-05-05T04:18:43.577Z,64.25
2019-05-05T04:21:08.119Z,64.69
2019-05-05T04:23:33.511Z,64.62
2019-05-05T04:25:58.034Z,63.51
2019-05-05T04:28:40.368Z,63.44
2019-05-05T04:31:04.969Z,63.13
2019-05-05T04:33:29.556Z,64.18
2019-05-05T04:35:54.599Z,63.70
2019-05-05T04:38:19.305Z,64.02
2019-05-05T04:40:43.769Z,63.56
2019-05-05T04:43:08.327Z,64.35
2019-05-05T04:45:34.695Z,64.51
2019-05-05T04:48:04.359Z,65.23
2019-05-05T04:50:34.541Z,64.99
2019-05-05T04:53:00.775Z,65.12
2019-05-05T04:55:25.309Z,65.55
2019-05-05T04:57:49.819Z,65.70
2019-05-05T05:00:14.446Z,65.71
2019-05-05T05:02:56.678Z,66.15
2019-05-05T05:05:39.334Z,66.28
2019-05-05T05:08:03.907Z,65.86
2019-05-05T05:10:28.448Z,66.28
2019-05-05T05:12:54.017Z,66.57
2019-05-05T05:15:18.698Z,67.55
2019-05-05T05:17:44.818Z,67.67
2019-05-05T05:22:33.448Z,67.25
2019-05-05T05:24:58.034Z,67.11
2019-05-05T05:27:24.277Z,67.15
2019-05-05T05:29:48.727Z,67.12
2019-05-05T05:32:13.211Z,67.99
2019-05-05T05:34:37.666Z,68.09
2019-05-05T05:37:04.060Z,68.08
2019-05-05T05:39:44.956Z,68.03
2019-05-05T05:42:09.507Z,67.20
2019-05-05T05:44:44.771Z,68.80
2019-05-05T05:47:16.684Z,67.68
2019-05-05T05:49:45.511Z,67.65
2019-05-05T05:52:15.781Z,67.72
2019-05-05T05:54:36.211Z,67.29
2019-05-05T05:57:00.725Z,67.36
2019-05-05T05:59:25.260Z,66.30
2019-05-05T06:01:49.733Z,66.19
2019-05-05T06:04:14.559Z,66.13
2019-05-05T06:06:39.110Z,65.65
2019-05-05T06:09:04.339Z,66.21
2019-05-05T06:11:28.979Z,65.82
2019-05-05T06:13:54.478Z,66.86
2019-05-05T06:16:18.923Z,66.71
2019-05-05T06:18:43.760Z,66.90
2019-05-05T06:21:08.243Z,65.98
2019-05-05T06:23:34.415Z,66.53
2019-05-05T06:25:59.086Z,66.42
2019-05-05T06:28:23.814Z,66.66
2019-05-05T06:30:48.247Z,65.85
2019-05-05T06:33:13.683Z,64.90
2019-05-05T06:35:38.319Z,65.35
2019-05-05T06:38:04.658Z,65.48
2019-05-05T06:40:30.728Z,66.31
2019-05-05T06:43:05.860Z,65.98
2019-05-05T06:45:34.985Z,67.04
2019-05-05T06:47:59.429Z,67.06
2019-05-05T06:50:24.324Z,67.25
2019-05-05T06:52:48.827Z,66.05
2019-05-05T06:55:14.163Z,64.71
2019-05-05T06:57:38.618Z,64.87
2019-05-05T07:00:03.741Z,65.60
2019-05-05T07:02:28.215Z,65.28
2019-05-05T07:04:54.648Z,64.79
2019-05-05T07:07:18.931Z,64.50
2019-05-05T07:09:44.297Z,65.37
2019-05-05T07:12:08.909Z,64.40
2019-05-05T07:14:34.093Z,64.41
2019-05-05T07:16:58.600Z,64.04
2019-05-05T07:19:23.913Z,63.85
2019-05-05T07:21:48.626Z,63.64
2019-05-05T07:24:14.516Z,62.55
2019-05-05T07:26:39.358Z,62.30
2019-05-05T07:29:04.599Z,61.96
2019-05-05T07:31:29.243Z,61.44
2019-05-05T07:33:54.423Z,61.28
2019-05-05T07:36:38.943Z,61.71
2019-05-05T07:39:05.545Z,61.42
2019-05-05T07:41:30.549Z,60.46
2019-05-05T07:43:55.044Z,60.51
2019-05-05T07:46:19.498Z,60.05
2019-05-05T07:48:44.345Z,60.50
2019-05-05T07:51:08.857Z,60.33
2019-05-05T07:53:33.597Z,60.10
2019-05-05T07:55:58.167Z,59.43
2019-05-05T07:58:24.272Z,58.86
2019-05-05T08:00:48.888Z,57.67
2019-05-05T08:03:14.383Z,57.31
2019-05-05T08:05:38.933Z,57.27
2019-05-05T08:08:04.627Z,56.05
2019-05-05T08:10:29.211Z,55.72
2019-05-05T08:12:54.307Z,54.30
2019-05-05T08:15:20.939Z,53.94
2019-05-05T08:17:47.050Z,53.27
2019-05-05T08:20:19.240Z,52.69
2019-05-05T08:22:44.333Z,53.15
2019-05-05T08:25:10.597Z,52.27
2019-05-05T08:27:39.992Z,52.45
2019-05-05T08:30:17.537Z,53.27
2019-05-05T08:32:43.715Z,53.23
2019-05-05T08:35:08.694Z,54.64
2019-05-05T08:37:34.335Z,52.97
2019-05-05T08:39:58.904Z,53.04
2019-05-05T08:42:24.674Z,53.04
2019-05-05T08:44:49.249Z,51.52
2019-05-05T08:47:13.963Z,51.38
2019-05-05T08:49:38.509Z,51.32
2019-05-05T08:52:04.002Z,49.91
2019-05-05T08:54:28.703Z,50.01
2019-05-05T08:56:54.924Z,49.94
2019-05-05T08:59:19.670Z,49.40
2019-05-05T09:01:44.880Z,48.82
2019-05-05T09:04:09.600Z,51.18
2019-05-05T09:06:37.708Z,47.92
2019-05-05T09:09:01.294Z,48.38
2019-05-05T09:11:25.777Z,47.29
2019-05-05T09:13:50.228Z,46.74
2019-05-05T09:16:14.792Z,44.44
2019-05-05T09:18:40.912Z,47.56
2019-05-05T09:21:05.520Z,47.99
2019-05-05T09:23:31.949Z,47.64
2019-05-05T09:26:10.079Z,48.79
2019-05-05T09:28:53.843Z,50.03
2019-05-05T09:31:18.504Z,47.87
2019-05-05T09:33:44.221Z,46.18
2019-05-05T09:36:08.741Z,44.86
2019-05-05T09:38:34.731Z,45.17
2019-05-05T09:40:59.354Z,45.88
2019-05-05T09:43:24.208Z,43.64
2019-05-05T09:45:48.719Z,43.98
2019-05-05T09:48:13.913Z,41.87
2019-05-05T09:50:38.678Z,43.17
2019-05-05T09:53:04.199Z,41.34
2019-05-05T09:55:28.803Z,43.36
2019-05-05T09:57:54.012Z,43.00
2019-05-05T10:00:18.591Z,40.48
2019-05-05T10:02:44.190Z,43.45
2019-05-05T10:05:09.632Z,40.60
2019-05-05T10:07:34.655Z,42.15
2019-05-05T10:09:59.085Z,42.19
2019-05-05T10:12:23.553Z,41.36
2019-05-05T10:14:48.035Z,41.54
2019-05-05T10:17:14.111Z,40.81
2019-05-05T10:19:38.732Z,40.66
2019-05-05T10:22:04.021Z,40.88
2019-05-05T10:24:33.898Z,38.93
2019-05-05T10:26:58.892Z,41.23
2019-05-05T10:29:23.503Z,41.34
2019-05-05T10:31:47.981Z,38.21
2019-05-05T10:34:14.155Z,38.26
2019-05-05T10:36:38.622Z,37.52
2019-05-05T10:39:04.741Z,38.33
2019-05-05T10:41:29.287Z,37.45
2019-05-05T10:43:54.268Z,39.17
2019-05-05T10:46:18.784Z,39.21
2019-05-05T10:48:44.553Z,38.12
2019-05-05T10:51:09.154Z,38.36
2019-05-05T10:53:33.698Z,39.00
2019-05-05T10:55:58.245Z,39.48
2019-05-05T10:58:24.399Z,39.97
2019-05-05T11:00:51.888Z,40.17
2019-05-05T11:03:16.507Z,37.90
2019-05-05T11:05:41.351Z,39.91
2019-05-05T11:08:07.397Z,39.39
2019-05-05T11:10:33.991Z,37.88
2019-05-05T11:12:58.479Z,38.55
2019-05-05T11:15:24.679Z,38.01
2019-05-05T11:17:49.396Z,37.65
2019-05-05T11:20:14.581Z,37.20
2019-05-05T11:22:39.008Z,39.00
2019-05-05T11:25:05.138Z,37.44
2019-05-05T11:27:29.846Z,36.40
2019-05-05T11:30:14.335Z,35.82
2019-05-05T11:32:56.770Z,36.10
2019-05-05T11:35:24.436Z,34.79
2019-05-05T11:37:49.078Z,35.89
2019-05-05T11:40:13.900Z,36.90
2019-05-05T11:42:38.393Z,36.70
2019-05-05T11:45:04.258Z,38.11
2019-05-05T11:47:28.921Z,38.39
2019-05-05T11:49:56.179Z,38.90
2019-05-05T11:52:19.627Z,37.73
2019-05-05T11:54:44.090Z,38.70
2019-05-05T11:57:08.564Z,38.41
2019-05-05T11:59:33.028Z,38.22
2019-05-05T12:01:57.635Z,37.00
2019-05-05T12:04:23.989Z,37.84
2019-05-05T12:06:48.337Z,35.78
2019-05-05T12:09:14.765Z,35.46
2019-05-05T12:11:39.254Z,35.30
2019-05-05T12:14:05.502Z,34.85
2019-05-05T12:16:30.922Z,36.43
2019-05-05T12:18:55.466Z,35.66
2019-05-05T12:21:19.949Z,37.64
2019-05-05T12:23:44.662Z,36.61
2019-05-05T12:26:24.362Z,34.18
2019-05-05T12:28:50.538Z,35.87
2019-05-05T12:31:24.755Z,35.31
2019-05-05T12:33:49.421Z,34.97
2019-05-05T12:36:15.037Z,33.91
2019-05-05T12:38:39.652Z,34.50
2019-05-05T12:41:04.532Z,33.90
2019-05-05T12:43:29.040Z,33.31
2019-05-05T12:46:11.419Z,34.83
2019-05-05T12:48:43.856Z,35.62
2019-05-05T12:51:08.422Z,34.40
2019-05-05T12:53:32.965Z,35.17
2019-05-05T12:55:57.508Z,34.10
2019-05-05T12:58:22.048Z,34.11
2019-05-05T13:01:04.832Z,35.12
2019-05-05T13:03:29.345Z,34.63
2019-05-05T13:05:53.861Z,36.01
2019-05-05T13:08:18.402Z,35.27
2019-05-05T13:10:44.199Z,34.69
2019-05-05T13:13:08.781Z,35.89
2019-05-05T13:15:33.932Z,34.43
2019-05-05T13:17:58.502Z,35.73
2019-05-05T13:20:33.980Z,33.06
2019-05-05T13:23:04.133Z,33.55
2019-05-05T13:25:52.434Z,33.99
2019-05-05T13:28:05.872Z,34.52
2019-05-05T13:30:30.347Z,35.15
2019-05-05T13:32:55.022Z,33.59
2019-05-05T13:35:19.630Z,32.71
2019-05-05T13:37:44.460Z,35.50
2019-05-05T13:40:09.488Z,33.92
2019-05-05T13:42:34.047Z,33.56
2019-05-05T13:45:00.145Z,35.19
2019-05-05T13:47:24.718Z,34.60
2019-05-05T13:49:50.878Z,32.34
2019-05-05T13:52:15.348Z,32.57
2019-05-05T13:54:39.814Z,32.77
2019-05-05T13:57:04.354Z,32.15
2019-05-05T13:59:28.908Z,31.38
2019-05-05T14:01:53.949Z,34.31
2019-05-05T14:04:18.421Z,34.88
2019-05-05T14:06:44.488Z,35.79
2019-05-05T14:09:09.285Z,34.66
2019-05-05T14:11:34.068Z,36.24
2019-05-05T14:13:58.578Z,36.71
2019-05-05T14:16:23.161Z,36.92
2019-05-05T14:18:47.644Z,36.06
2019-05-05T14:21:14.077Z,36.23
2019-05-05T14:23:56.462Z,36.19
2019-05-05T14:26:25.722Z,36.24
2019-05-05T14:28:47.277Z,38.68
2019-05-05T14:31:14.116Z,41.45
2019-05-05T14:33:54.199Z,41.76
2019-05-05T14:36:33.512Z,42.41
2019-05-05T14:38:58.773Z,43.07
2019-05-05T14:41:23.327Z,42.05
2019-05-05T14:43:47.885Z,41.99
2019-05-05T14:46:14.466Z,42.91
2019-05-05T14:48:38.669Z,43.79
2019-05-05T14:51:03.998Z,43.37
2019-05-05T14:53:28.623Z,44.46
2019-05-05T14:55:53.804Z,44.34
2019-05-05T14:58:18.324Z,45.09
2019-05-05T15:00:44.268Z,44.81
2019-05-05T15:03:08.718Z,45.58
2019-05-05T15:05:37.873Z,45.42
2019-05-05T15:08:20.020Z,44.29
2019-05-05T15:11:03.645Z,44.14
2019-05-05T15:13:28.380Z,44.41
2019-05-05T15:15:53.903Z,44.98
2019-05-05T15:18:18.595Z,46.90
2019-05-05T15:20:44.025Z,46.00
2019-05-05T15:23:08.566Z,45.54
2019-05-05T15:25:34.141Z,45.77
2019-05-05T15:27:58.687Z,45.47
2019-05-05T15:30:26.915Z,46.21
2019-05-05T15:32:49.633Z,45.65
2019-05-05T15:35:14.418Z,45.90
2019-05-05T15:37:38.904Z,44.99
2019-05-05T15:40:04.035Z,45.70
2019-05-05T15:42:28.592Z,45.40
2019-05-05T15:44:54.417Z,44.61
2019-05-05T15:47:18.968Z,45.18
2019-05-05T15:49:44.067Z,44.38
2019-05-05T15:52:08.587Z,45.29
2019-05-05T15:54:33.952Z,46.76
2019-05-05T15:57:05.444Z,47.69
2019-05-05T15:59:24.728Z,47.24
2019-05-05T16:01:49.281Z,48.12
2019-05-05T16:04:14.136Z,47.65
2019-05-05T16:06:38.659Z,46.93
2019-05-05T16:09:04.927Z,47.09
2019-05-05T16:11:29.508Z,46.61
2019-05-05T16:13:54.486Z,45.47
2019-05-05T16:16:30.002Z,45.40
2019-05-05T16:19:05.368Z,44.94
2019-05-05T16:21:26.836Z,45.98
2019-05-05T16:23:56.021Z,44.44
2019-05-05T16:26:20.662Z,44.28
2019-05-05T16:28:45.296Z,44.73
2019-05-05T16:31:09.843Z,44.72
2019-05-05T16:33:34.388Z,45.24
2019-05-05T16:35:58.923Z,44.69
2019-05-05T16:38:24.041Z,42.76
2019-05-05T16:40:48.777Z,43.71
2019-05-05T16:43:14.090Z,43.36
2019-05-05T16:45:39.732Z,43.70
2019-05-05T16:48:04.421Z,42.83
2019-05-05T16:50:28.958Z,42.91
2019-05-05T16:53:04.116Z,43.15
2019-05-05T16:55:34.495Z,42.96
2019-05-05T16:57:59.519Z,44.13
2019-05-05T17:00:25.855Z,45.03
2019-05-05T17:02:50.446Z,44.79
2019-05-05T17:05:15.155Z,45.10
2019-05-05T17:07:39.655Z,44.78
2019-05-05T17:10:06.245Z,45.03
2019-05-05T17:12:30.875Z,44.20
2019-05-05T17:15:09.224Z,45.53
2019-05-05T17:17:35.340Z,44.76
2019-05-05T17:20:01.457Z,44.57
2019-05-05T17:22:44.618Z,44.30
2019-05-05T17:25:09.743Z,44.42
2019-05-05T17:27:47.112Z,44.93
2019-05-05T17:30:00.451Z,44.61
2019-05-05T17:32:25.012Z,43.41
2019-05-05T17:34:49.465Z,43.57
2019-05-05T17:37:14.006Z,43.20
2019-05-05T17:39:40.807Z,42.73
2019-05-05T17:42:16.121Z,43.73
2019-05-05T17:44:44.278Z,43.85
2019-05-05T17:47:25.086Z,43.87
2019-05-05T17:50:06.247Z,43.03
2019-05-05T17:52:35.326Z,44.04
2019-05-05T17:55:00.274Z,42.74
2019-05-05T17:57:24.921Z,43.14
2019-05-05T17:59:49.393Z,43.91
2019-05-05T18:02:14.026Z,44.36
2019-05-05T18:04:39.071Z,43.64
2019-05-05T18:07:05.250Z,44.32
2019-05-05T18:09:40.371Z,44.32
2019-05-05T18:12:06.599Z,44.96
2019-05-05T18:14:44.764Z,44.18
2019-05-05T18:17:09.304Z,44.98
2019-05-05T18:19:34.109Z,44.81
2019-05-05T18:21:58.617Z,44.36
2019-05-05T18:24:24.294Z,44.64
2019-05-05T18:26:48.969Z,43.47
2019-05-05T18:29:14.574Z,43.94
2019-05-05T18:31:39.126Z,43.64
2019-05-05T18:34:04.099Z,43.92
2019-05-05T18:36:29.416Z,44.35
2019-05-05T18:38:53.982Z,43.45
2019-05-05T18:41:29.320Z,43.03
2019-05-05T18:44:01.476Z,43.33
2019-05-05T18:46:25.982Z,44.45
2019-05-05T18:48:50.825Z,44.03
2019-05-05T18:51:15.285Z,43.80
2019-05-05T18:53:39.744Z,43.89
2019-05-05T18:56:04.357Z,43.41
2019-05-05T18:58:30.447Z,43.56
2019-05-05T19:01:09.026Z,43.81
2019-05-05T19:03:44.099Z,43.19
2019-05-05T19:06:19.309Z,43.59
2019-05-05T19:08:54.266Z,44.17
2019-05-05T19:11:11.650Z,43.13
2019-05-05T19:13:36.229Z,44.49
2019-05-05T19:16:00.771Z,43.85
2019-05-05T19:18:25.249Z,43.74
2019-05-05T19:20:51.399Z,44.41
2019-05-05T19:23:15.881Z,43.89
2019-05-05T19:25:40.492Z,44.41
2019-05-05T19:28:05.061Z,43.52
2019-05-05T19:30:29.613Z,43.82
2019-05-05T19:32:54.272Z,44.55
2019-05-05T19:35:18.711Z,44.65
2019-05-05T19:37:44.528Z,44.99
2019-05-05T19:40:10.099Z,44.12
2019-05-05T19:42:34.563Z,44.70
2019-05-05T19:44:59.017Z,45.08
2019-05-05T19:47:24.602Z,44.90
2019-05-05T19:49:50.774Z,44.62
2019-05-05T19:52:15.369Z,45.07
2019-05-05T19:54:39.855Z,44.62
2019-05-05T19:57:04.968Z,45.18
2019-05-05T19:59:29.535Z,45.15
2019-05-05T20:01:54.117Z,44.78
2019-05-05T20:04:18.690Z,46.17
2019-05-05T20:06:44.156Z,46.61
2019-05-05T20:09:09.120Z,46.29
2019-05-05T20:11:34.065Z,46.30
2019-05-05T20:14:07.571Z,47.56
2019-05-05T20:16:38.358Z,48.47
2019-05-05T20:19:04.220Z,49.04
2019-05-05T20:21:28.749Z,49.34
2019-05-05T20:23:53.212Z,48.94
2019-05-05T20:26:17.694Z,48.35
2019-05-05T20:28:42.231Z,48.64
2019-05-05T20:31:06.750Z,49.94
2019-05-05T20:33:33.775Z,47.93
2019-05-05T20:35:59.943Z,47.94
2019-05-05T20:38:31.844Z,48.67
2019-05-05T20:41:14.241Z,48.59
2019-05-05T20:43:39.109Z,48.28
2019-05-05T20:46:04.498Z,48.27
2019-05-05T20:48:29.142Z,48.05
2019-05-05T20:50:54.681Z,47.19
2019-05-05T20:53:19.184Z,46.99
2019-05-05T20:55:44.720Z,47.44
2019-05-05T20:58:09.365Z,47.05
2019-05-05T21:00:34.768Z,47.03
2019-05-05T21:02:59.357Z,47.62
2019-05-05T21:05:24.230Z,46.86
2019-05-05T21:07:49.965Z,46.86
2019-05-05T21:10:14.639Z,47.09
2019-05-05T21:12:42.510Z,47.92
2019-05-05T21:15:08.283Z,48.07
2019-05-05T21:17:33.753Z,47.77
2019-05-05T21:19:58.452Z,49.53
2019-05-05T21:22:30.286Z,48.71
2019-05-05T21:24:55.697Z,48.10
2019-05-05T21:27:20.229Z,47.61
2019-05-05T21:29:44.696Z,47.56
2019-05-05T21:32:09.811Z,47.98
2019-05-05T21:34:34.396Z,48.16
2019-05-05T21:36:58.797Z,49.09
2019-05-05T21:39:24.904Z,51.31
2019-05-05T21:41:49.664Z,51.40
2019-05-05T21:44:14.615Z,50.84
2019-05-05T21:46:39.414Z,49.67
2019-05-05T21:49:04.129Z,50.06
2019-05-05T21:51:42.584Z,49.87
2019-05-05T21:54:27.036Z,49.80
2019-05-05T21:57:04.242Z,49.48
2019-05-05T21:59:28.458Z,49.32
2019-05-05T22:01:54.588Z,49.53
2019-05-05T22:04:19.091Z,51.38
2019-05-05T22:06:43.622Z,52.34
2019-05-05T22:09:08.393Z,51.81
2019-05-05T22:11:32.943Z,51.16
2019-05-05T22:13:57.455Z,50.56
2019-05-05T22:16:21.979Z,50.36
2019-05-05T22:18:46.906Z,52.23
2019-05-05T22:21:28.029Z,52.07
2019-05-05T22:24:12.962Z,51.30
2019-05-05T22:26:36.499Z,50.86
2019-05-05T22:29:00.955Z,51.14
2019-05-05T22:31:25.416Z,51.91
2019-05-05T22:33:49.879Z,52.39
2019-05-05T22:36:14.337Z,51.93
2019-05-05T22:38:38.801Z,51.65
2019-05-05T22:41:03.336Z,52.15
2019-05-05T22:43:27.862Z,52.46
2019-05-05T22:45:54.142Z,52.23
2019-05-05T22:48:18.569Z,52.51
2019-05-05T22:50:43.642Z,52.32
2019-05-05T22:53:08.567Z,52.42
2019-05-05T22:55:34.361Z,53.58
2019-05-05T22:57:58.999Z,53.61
2019-05-05T23:00:29.180Z,54.49
2019-05-05T23:03:09.658Z,54.02
2019-05-05T23:05:44.615Z,54.10
2019-05-05T23:08:09.217Z,54.13
2019-05-05T23:10:33.681Z,53.40
2019-05-05T23:12:58.139Z,53.52
2019-05-05T23:15:25.326Z,53.50
2019-05-05T23:18:06.115Z,53.71
2019-05-05T23:21:03.787Z,53.69
2019-05-05T23:23:29.882Z,53.92
2019-05-05T23:25:56.054Z,54.15
2019-05-05T23:28:20.516Z,54.11
2019-05-05T23:30:45.049Z,54.19
2019-05-05T23:33:09.877Z,54.72
2019-05-05T23:35:34.525Z,54.50
2019-05-05T23:37:58.971Z,54.47
2019-05-05T23:40:27.963Z,54.83
2019-05-05T23:42:54.121Z,55.77
2019-05-05T23:45:19.126Z,56.43
2019-05-05T23:47:44.798Z,55.74
2019-05-05T23:50:09.362Z,55.27
2019-05-05T23:52:34.974Z,55.84
2019-05-05T23:54:59.655Z,55.54
2019-05-05T23:57:24.601Z,55.64
2019-05-05T23:59:49.153Z,55.35
